Time;durP1;ratioP1;P1;durP2;ratioP2;P2;SDS_P1;SDS_P2;PMS_P1;PMS_P2;Temp;Humidity;BMP_temperature;BMP_pressure;BME280_temperature;BME280_humidity;BME280_pressure;Samples;Min_cycle;Max_cycle;Signal;HPM_P1;HPM_P2
2022/11/23 00:01:47;;;;;;;0.15;0.15;;;15.10;79.40;;;;;;4196067;28;20046;-59
2022/11/23 00:04:27;;;;;;;0.00;0.00;;;15.10;79.50;;;;;;4143716;28;20055;-60
2022/11/23 00:07:17;;;;;;;0.00;0.00;;;15.10;79.50;;;;;;4154251;28;20051;-59
2022/11/23 00:10:00;;;;;;;0.00;0.00;;;15.10;79.60;;;;;;4196006;27;20047;-60
2022/11/23 00:12:49;;;;;;;0.95;0.95;;;15.00;79.60;;;;;;4177364;28;20082;-60
2022/11/23 00:15:32;;;;;;;0.20;0.20;;;15.10;79.70;;;;;;4181410;28;20051;-60
2022/11/23 00:18:15;;;;;;;0.00;0.00;;;15.00;79.70;;;;;;4185272;28;20101;-60
2022/11/23 00:21:14;;;;;;;0.00;0.00;;;15.00;79.80;;;;;;4180590;28;20063;-60
2022/11/23 00:23:58;;;;;;;0.00;0.00;;;15.00;79.80;;;;;;4208339;28;20166;-59
2022/11/23 00:26:39;;;;;;;0.00;0.00;;;15.00;80.00;;;;;;4194567;28;20105;-60
2022/11/23 00:29:27;;;;;;;0.47;0.47;;;15.00;80.10;;;;;;4164544;28;20573;-60
2022/11/23 00:32:08;;;;;;;1.10;1.10;;;15.00;80.20;;;;;;4195351;28;20067;-60
2022/11/23 00:34:57;;;;;;;0.00;0.00;;;14.90;81.10;;;;;;4169606;27;20531;-60
2022/11/23 00:37:41;;;;;;;10.88;3.38;;;15.00;80.20;;;;;;4170196;28;20561;-60
2022/11/23 00:40:35;;;;;;;0.00;0.00;;;14.90;80.20;;;;;;4192072;28;20578;-60
2022/11/23 00:43:22;;;;;;;0.77;0.77;;;14.90;80.30;;;;;;4169518;28;20062;-60
2022/11/23 00:46:16;;;;;;;0.00;0.00;;;14.90;80.50;;;;;;4206655;27;20101;-60
2022/11/23 00:49:00;;;;;;;0.00;0.00;;;14.90;80.50;;;;;;4156925;28;20167;-60
2022/11/23 00:51:41;;;;;;;0.43;0.43;;;14.90;81.40;;;;;;4188492;28;20071;-60
2022/11/23 00:54:33;;;;;;;0.00;0.00;;;14.90;80.60;;;;;;4193007;28;20055;-59
2022/11/23 00:57:20;;;;;;;0.43;0.22;;;14.80;80.60;;;;;;4188808;28;20105;-59
2022/11/23 01:00:06;;;;;;;0.22;0.22;;;14.90;80.80;;;;;;4185290;28;20050;-60
2022/11/23 01:02:49;;;;;;;0.00;0.00;;;14.90;80.90;;;;;;4188114;28;20067;-60
2022/11/23 01:05:36;;;;;;;0.00;0.00;;;14.90;81.00;;;;;;4199408;28;20054;-59
2022/11/23 01:08:22;;;;;;;0.00;0.00;;;15.00;80.90;;;;;;4191400;28;20184;-60
2022/11/23 01:11:07;;;;;;;1.75;1.65;;;15.10;80.50;;;;;;4182009;28;20106;-59
2022/11/23 01:13:50;;;;;;;0.00;0.00;;;15.10;80.30;;;;;;4156972;28;20055;-60
2022/11/23 01:16:36;;;;;;;0.00;0.00;;;15.20;80.00;;;;;;4166984;28;20123;-60
2022/11/23 01:19:20;;;;;;;0.00;0.00;;;15.30;79.80;;;;;;4184388;28;20536;-59
2022/11/23 01:22:05;;;;;;;0.08;0.08;;;15.30;79.60;;;;;;4187002;28;20423;-57
2022/11/23 01:24:47;;;;;;;0.00;0.00;;;15.30;79.50;;;;;;4181667;28;20097;-59
2022/11/23 01:27:31;;;;;;;0.00;0.00;;;15.30;79.30;;;;;;4205523;27;20055;-58
2022/11/23 01:30:18;;;;;;;0.00;0.00;;;15.50;79.10;;;;;;4202130;28;20189;-58
2022/11/23 01:32:59;;;;;;;0.00;0.00;;;15.50;78.70;;;;;;4179964;28;20113;-60
2022/11/23 01:35:50;;;;;;;0.00;0.00;;;15.60;78.60;;;;;;4178430;28;20102;-60
2022/11/23 01:38:39;;;;;;;0.00;0.00;;;15.60;78.40;;;;;;4170459;28;20130;-59
2022/11/23 01:41:22;;;;;;;0.03;0.03;;;15.60;78.30;;;;;;4171003;28;20497;-60
2022/11/23 01:44:32;;;;;;;0.00;0.00;;;15.60;78.30;;;;;;4157089;28;20050;-59
2022/11/23 01:47:16;;;;;;;0.00;0.00;;;15.60;78.30;;;;;;4196656;28;20081;-58
2022/11/23 01:50:00;;;;;;;0.03;0.03;;;15.50;79.20;;;;;;4191909;28;20046;-58
2022/11/23 01:52:43;;;;;;;0.10;0.10;;;15.60;78.50;;;;;;4187665;28;20059;-59
2022/11/23 01:55:28;;;;;;;0.00;0.00;;;15.60;78.60;;;;;;4196159;28;20051;-59
2022/11/23 01:58:14;;;;;;;0.00;0.00;;;15.60;78.40;;;;;;4189396;28;20043;-58
2022/11/23 02:00:55;;;;;;;0.00;0.00;;;15.60;78.30;;;;;;4186916;28;20304;-57
2022/11/23 02:03:37;;;;;;;0.10;0.10;;;15.60;78.40;;;;;;4192999;27;20134;-59
2022/11/23 02:06:23;;;;;;;0.20;0.20;;;15.70;78.40;;;;;;4192764;27;20125;-60
2022/11/23 02:09:07;;;;;;;;;;;15.70;78.10;;;;;;4183130;28;20071;-59
2022/11/23 02:12:00;;;;;;;0.03;0.03;;;15.80;77.90;;;;;;4179132;28;19932;-59
2022/11/23 02:14:46;;;;;;;0.00;0.00;;;15.80;77.70;;;;;;4181267;28;20099;-60
2022/11/23 02:17:28;;;;;;;0.10;0.10;;;15.80;77.60;;;;;;4187967;28;20422;-59
2022/11/23 02:20:18;;;;;;;0.00;0.00;;;15.80;78.40;;;;;;4202717;27;20101;-59
2022/11/23 02:23:23;;;;;;;0.28;0.28;;;15.80;77.50;;;;;;4206350;28;21846;-59
2022/11/23 02:26:09;;;;;;;0.00;0.00;;;15.80;77.50;;;;;;4199421;28;20095;-59
2022/11/23 02:29:05;;;;;;;0.08;0.08;;;15.80;77.50;;;;;;4200494;27;20051;-60
2022/11/23 02:31:48;;;;;;;0.13;0.13;;;15.80;77.60;;;;;;4174751;28;20053;-60
2022/11/23 02:34:29;;;;;;;0.00;0.00;;;15.80;77.70;;;;;;4167421;28;20505;-61
2022/11/23 02:37:16;;;;;;;0.00;0.00;;;15.80;77.90;;;;;;4168699;28;20058;-59
2022/11/23 02:40:10;;;;;;;0.20;0.20;;;15.70;78.10;;;;;;4182779;28;20434;-59
2022/11/23 02:43:02;;;;;;;0.00;0.00;;;15.70;78.20;;;;;;4171807;28;20052;-60
2022/11/23 02:46:14;;;;;;;0.00;0.00;;;15.80;78.10;;;;;;4187264;28;20059;-60
2022/11/23 02:48:55;;;;;;;0.00;0.00;;;15.80;78.00;;;;;;4172761;28;20054;-58
2022/11/23 02:51:40;;;;;;;0.00;0.00;;;15.80;78.00;;;;;;4182076;28;20058;-58
2022/11/23 02:54:21;;;;;;;0.00;0.00;;;15.80;77.80;;;;;;4188401;28;20056;-59
2022/11/23 02:57:03;;;;;;;0.00;0.00;;;15.90;77.70;;;;;;4198687;28;20213;-59
2022/11/23 02:59:46;;;;;;;0.10;0.10;;;15.90;77.50;;;;;;4205470;28;20402;-58
2022/11/23 03:02:30;;;;;;;0.32;0.32;;;15.90;77.50;;;;;;4200307;28;20169;-59
2022/11/23 03:05:11;;;;;;;0.00;0.00;;;15.90;77.50;;;;;;4196768;28;20054;-59
2022/11/23 03:07:52;;;;;;;0.03;0.03;;;15.90;77.40;;;;;;4193544;28;20046;-59
2022/11/23 03:10:37;;;;;;;0.00;0.00;;;16.00;77.30;;;;;;4189680;28;20051;-58
2022/11/23 03:13:18;;;;;;;0.80;0.80;;;16.00;77.10;;;;;;4193728;28;20596;-58
2022/11/23 03:16:01;;;;;;;0.00;0.00;;;16.00;77.00;;;;;;4192632;28;20388;-58
2022/11/23 03:18:44;;;;;;;0.00;0.00;;;16.00;77.10;;;;;;4187715;28;20126;-59
2022/11/23 03:21:25;;;;;;;0.20;0.20;;;16.00;77.20;;;;;;4191186;28;20414;-58
2022/11/23 03:24:06;;;;;;;0.00;0.00;;;15.90;77.40;;;;;;4198325;28;20059;-58
2022/11/23 03:26:48;;;;;;;0.00;0.00;;;15.90;78.50;;;;;;4199754;28;20059;-58
2022/11/23 03:29:34;;;;;;;0.00;0.00;;;16.00;77.70;;;;;;4200319;28;20046;-60
2022/11/23 03:32:25;;;;;;;0.00;0.00;;;16.00;77.60;;;;;;4188920;28;20075;-60
2022/11/23 03:35:10;;;;;;;0.30;0.30;;;16.00;77.40;;;;;;4196895;28;20067;-60
2022/11/23 03:38:11;;;;;;;0.20;0.20;;;16.10;77.30;;;;;;4179547;28;20160;-62
2022/11/23 03:40:59;;;;;;;4.75;2.63;;;16.10;77.10;;;;;;4207270;28;20969;-60
2022/11/23 03:44:10;;;;;;;49.50;1.65;;;16.10;77.00;;;;;;4193989;28;20469;-60
2022/11/23 03:46:51;;;;;;;0.00;0.00;;;16.10;76.90;;;;;;4202816;28;20643;-61
2022/11/23 03:49:34;;;;;;;0.00;0.00;;;16.10;77.10;;;;;;4199028;28;20502;-60
2022/11/23 03:52:15;;;;;;;0.00;0.00;;;16.20;77.00;;;;;;4201189;28;20052;-60
2022/11/23 03:54:58;;;;;;;0.00;0.00;;;16.20;77.00;;;;;;4170046;28;20055;-60
2022/11/23 03:57:40;;;;;;;0.25;0.25;;;16.10;76.80;;;;;;4194821;28;20615;-60
2022/11/23 04:00:20;;;;;;;0.93;0.93;;;16.20;76.90;;;;;;4175871;28;20050;-59
2022/11/23 04:03:09;;;;;;;0.00;0.00;;;16.10;76.90;;;;;;4190527;28;20423;-60
2022/11/23 04:06:25;;;;;;;0.00;0.00;;;16.10;77.10;;;;;;4161482;28;20077;-60
2022/11/23 04:09:27;;;;;;;0.00;0.00;;;16.10;77.40;;;;;;4206291;28;20117;-59
2022/11/23 04:12:34;;;;;;;0.00;0.00;;;16.00;77.60;;;;;;4197357;28;20395;-60
2022/11/23 04:15:18;;;;;;;0.00;0.00;;;16.10;77.60;;;;;;4207263;27;20055;-60
2022/11/23 04:17:59;;;;;;;0.00;0.00;;;16.10;77.40;;;;;;4183645;28;20422;-60
2022/11/23 04:20:42;;;;;;;0.00;0.00;;;16.10;77.30;;;;;;4168897;28;20569;-60
2022/11/23 04:23:25;;;;;;;0.00;0.00;;;16.10;77.40;;;;;;4198735;28;20101;-60
2022/11/23 04:26:10;;;;;;;0.00;0.00;;;16.10;77.40;;;;;;4195028;28;20038;-59
2022/11/23 04:28:55;;;;;;;0.00;0.00;;;16.20;78.20;;;;;;4196125;28;20051;-59
2022/11/23 04:31:37;;;;;;;;;;;16.20;77.20;;;;;;4191876;28;20510;-60
2022/11/23 04:34:30;;;;;;;0.00;0.00;;;16.20;77.20;;;;;;4202349;28;20050;-59
2022/11/23 04:37:14;;;;;;;0.00;0.00;;;16.20;77.10;;;;;;4199970;28;20067;-60
2022/11/23 04:39:59;;;;;;;0.00;0.00;;;16.30;77.20;;;;;;4191399;27;20055;-59
2022/11/23 04:43:05;;;;;;;0.47;0.47;;;16.20;77.00;;;;;;4206123;28;20071;-58
2022/11/23 04:45:47;;;;;;;0.20;0.20;;;16.20;77.00;;;;;;4186482;28;20119;-58
2022/11/23 04:48:40;;;;;;;0.00;0.00;;;16.20;77.20;;;;;;4176519;28;20567;-58
2022/11/23 04:51:21;;;;;;;0.00;0.00;;;16.20;77.20;;;;;;4198495;28;20063;-58
2022/11/23 04:54:03;;;;;;;0.00;0.00;;;16.30;77.10;;;;;;4182830;28;20059;-59
2022/11/23 04:57:06;;;;;;;0.00;0.00;;;16.30;76.90;;;;;;4161122;28;20172;-58
2022/11/23 04:59:50;;;;;;;0.00;0.00;;;16.30;76.90;;;;;;4179215;28;20141;-59
2022/11/23 05:02:31;;;;;;;0.00;0.00;;;16.30;76.90;;;;;;4188991;28;20564;-60
2022/11/23 05:05:22;;;;;;;0.03;0.03;;;16.30;77.10;;;;;;4189493;28;20067;-59
2022/11/23 05:08:08;;;;;;;0.00;0.00;;;16.30;77.10;;;;;;4177725;28;20479;-59
2022/11/23 05:11:21;;;;;;;0.00;0.00;;;16.30;77.00;;;;;;4152003;28;20518;-58
2022/11/23 05:14:04;;;;;;;0.00;0.00;;;16.30;76.90;;;;;;4164252;28;20525;-60
2022/11/23 05:16:46;;;;;;;0.00;0.00;;;16.40;76.80;;;;;;4195249;28;20062;-58
2022/11/23 05:19:27;;;;;;;0.00;0.00;;;16.30;76.80;;;;;;4171442;28;20572;-57
2022/11/23 05:22:09;;;;;;;;;;;16.30;77.00;;;;;;4198702;28;20100;-58
2022/11/23 05:24:59;;;;;;;0.00;0.00;;;16.30;77.10;;;;;;4184222;28;19938;-58
2022/11/23 05:27:45;;;;;;;0.00;0.00;;;16.20;77.20;;;;;;4174836;28;20048;-57
2022/11/23 05:30:29;;;;;;;0.10;0.10;;;16.10;77.50;;;;;;4181709;28;20217;-59
2022/11/23 05:33:11;;;;;;;0.00;0.00;;;16.10;77.80;;;;;;4173466;28;20118;-57
2022/11/23 05:35:53;;;;;;;0.00;0.00;;;16.10;77.90;;;;;;4182410;28;20067;-57
2022/11/23 05:38:47;;;;;;;0.00;0.00;;;16.20;77.70;;;;;;4179331;28;20177;-57
2022/11/23 05:41:36;;;;;;;0.00;0.00;;;16.20;77.60;;;;;;4207241;27;20062;-58
2022/11/23 05:44:29;;;;;;;0.43;0.43;;;16.30;77.50;;;;;;4191921;28;20082;-58
2022/11/23 05:47:40;;;;;;;;;;;;;;;;;;;;;
2022/11/23 05:50:31;;;;;;;0.00;0.00;;;16.20;77.50;;;;;;4199913;27;20496;-59
2022/11/23 05:53:31;;;;;;;0.00;0.00;;;16.30;77.50;;;;;;4204743;27;20055;-60
2022/11/23 05:56:28;;;;;;;0.52;0.52;;;16.30;77.40;;;;;;4173190;28;20059;-59
2022/11/23 05:59:24;;;;;;;0.00;0.00;;;16.30;77.50;;;;;;4181981;27;20129;-59
2022/11/23 06:02:11;;;;;;;0.00;0.00;;;16.30;77.50;;;;;;4183032;28;20073;-59
2022/11/23 06:04:54;;;;;;;0.00;0.00;;;16.30;77.50;;;;;;4201537;27;20063;-59
2022/11/23 06:08:02;;;;;;;0.00;0.00;;;16.30;77.50;;;;;;4191614;27;20118;-59
2022/11/23 06:10:50;;;;;;;0.00;0.00;;;16.30;77.60;;;;;;4190799;28;20055;-59
2022/11/23 06:13:38;;;;;;;0.00;0.00;;;16.20;77.60;;;;;;4186233;27;20746;-59
2022/11/23 06:16:40;;;;;;;;;;;16.20;78.50;;;;;;4166836;28;20145;-60
2022/11/23 06:20:13;;;;;;;0.00;0.00;;;16.20;77.70;;;;;;4184978;28;20355;-60
2022/11/23 06:23:11;;;;;;;0.00;0.00;;;16.20;77.90;;;;;;4169104;28;20500;-59
2022/11/23 06:25:52;;;;;;;;;;;16.20;77.90;;;;;;4180678;28;20055;-61
2022/11/23 06:28:45;;;;;;;0.10;0.10;;;16.20;78.80;;;;;;4142191;28;19988;-59
2022/11/23 06:31:27;;;;;;;0.00;0.00;;;16.20;77.90;;;;;;4160786;28;20081;-59
2022/11/23 06:34:08;;;;;;;0.00;0.00;;;16.20;77.90;;;;;;4175419;28;20494;-59
2022/11/23 06:36:52;;;;;;;1.77;1.65;;;16.30;77.90;;;;;;4145001;28;20541;-59
2022/11/23 06:39:42;;;;;;;0.77;0.35;;;16.30;77.80;;;;;;4144091;28;20060;-57
2022/11/23 06:42:46;;;;;;;0.00;0.00;;;16.30;78.10;;;;;;4081289;28;20056;-59
2022/11/23 06:45:35;;;;;;;0.20;0.20;;;16.40;78.10;;;;;;4086770;28;20518;-58
2022/11/23 06:48:31;;;;;;;0.00;0.00;;;16.40;78.10;;;;;;4081062;28;20058;-58
2022/11/23 06:51:15;;;;;;;0.00;0.00;;;16.30;78.00;;;;;;4105353;28;20069;-60
2022/11/23 06:53:59;;;;;;;0.00;0.00;;;16.30;78.20;;;;;;4109422;28;20532;-60
2022/11/23 06:56:40;;;;;;;0.30;0.30;;;16.30;78.20;;;;;;4118906;28;20065;-59
2022/11/23 06:59:28;;;;;;;1.30;1.30;;;16.40;78.00;;;;;;4095992;28;20057;-60
2022/11/23 07:02:10;;;;;;;0.00;0.00;;;16.40;77.70;;;;;;4136023;28;20147;-59
2022/11/23 07:04:58;;;;;;;1.85;1.75;;;16.40;77.50;;;;;;4147819;28;20080;-59
2022/11/23 07:07:40;;;;;;;0.00;0.00;;;16.40;77.50;;;;;;4191954;27;20059;-60
2022/11/23 07:10:30;;;;;;;0.10;0.10;;;16.50;77.60;;;;;;4197926;28;20047;-59
2022/11/23 07:13:14;;;;;;;0.00;0.00;;;16.40;77.60;;;;;;4192245;28;20059;-59
2022/11/23 07:16:01;;;;;;;0.00;0.00;;;16.40;77.70;;;;;;4189866;28;20051;-59
2022/11/23 07:18:45;;;;;;;1.25;1.10;;;16.40;77.90;;;;;;4155810;28;20631;-59
2022/11/23 07:21:26;;;;;;;0.00;0.00;;;16.30;78.10;;;;;;4186370;28;20066;-60
2022/11/23 07:24:12;;;;;;;0.00;0.00;;;16.40;78.00;;;;;;4173409;28;20072;-59
2022/11/23 07:27:00;;;;;;;0.00;0.00;;;16.40;77.80;;;;;;4166473;28;20051;-58
2022/11/23 07:29:42;;;;;;;0.00;0.00;;;16.40;77.70;;;;;;4145543;28;20436;-59
2022/11/23 07:32:25;;;;;;;2.72;1.88;;;16.40;77.80;;;;;;4170564;28;20047;-58
2022/11/23 07:35:14;;;;;;;0.20;0.20;;;16.40;77.80;;;;;;4141713;28;20059;-58
2022/11/23 07:37:57;;;;;;;0.40;0.40;;;16.30;77.90;;;;;;4151752;28;20060;-58
2022/11/23 07:40:39;;;;;;;0.22;0.22;;;16.30;78.10;;;;;;4162566;28;20052;-59
2022/11/23 07:43:29;;;;;;;0.00;0.00;;;16.20;78.20;;;;;;4132637;28;20218;-58
2022/11/23 07:46:16;;;;;;;0.00;0.00;;;16.20;78.30;;;;;;4156304;28;20128;-58
2022/11/23 07:49:01;;;;;;;0.73;0.73;;;16.20;78.40;;;;;;4155910;28;20104;-53
2022/11/23 07:51:42;;;;;;;0.20;0.20;;;16.20;78.50;;;;;;4150055;28;20157;-58
2022/11/23 07:54:23;;;;;;;0.00;0.00;;;16.10;78.40;;;;;;4165875;28;20063;-57
2022/11/23 07:57:20;;;;;;;1.13;1.13;;;16.10;78.40;;;;;;4169592;28;20074;-58
2022/11/23 08:03:01;;;;;;;0.00;0.00;;;16.10;78.50;;;;;;4171167;28;20162;-58
2022/11/23 08:09:13;;;;;;;0.00;0.00;;;16.10;78.60;;;;;;4189927;28;20129;-58
2022/11/23 08:11:54;;;;;;;0.00;0.00;;;16.20;78.20;;;;;;4186550;28;20056;-57
2022/11/23 08:14:37;;;;;;;0.00;0.00;;;16.30;78.00;;;;;;4189314;28;20058;-57
2022/11/23 08:17:19;;;;;;;0.30;0.30;;;16.30;77.80;;;;;;4186468;28;20063;-59
2022/11/23 08:20:04;;;;;;;0.00;0.00;;;16.30;77.80;;;;;;4175566;28;20070;-58
2022/11/23 08:22:45;;;;;;;0.00;0.00;;;16.30;77.70;;;;;;4179151;28;20071;-58
2022/11/23 08:25:59;;;;;;;0.00;0.00;;;16.30;77.60;;;;;;4181514;28;20060;-58
2022/11/23 08:28:43;;;;;;;0.00;0.00;;;16.40;77.50;;;;;;4170931;28;20122;-59
2022/11/23 08:31:25;;;;;;;0.00;0.00;;;16.40;77.40;;;;;;4151321;28;20135;-58
2022/11/23 08:34:08;;;;;;;0.43;0.43;;;16.40;77.30;;;;;;4161221;28;20071;-58
2022/11/23 08:37:00;;;;;;;0.00;0.00;;;16.40;77.20;;;;;;4157107;28;20056;-58
2022/11/23 08:39:41;;;;;;;1.60;1.50;;;16.50;77.10;;;;;;4159278;28;20396;-59
2022/11/23 08:42:22;;;;;;;1.38;1.27;;;16.50;77.20;;;;;;4194521;28;20137;-57
2022/11/23 08:45:04;;;;;;;;;;;16.40;77.20;;;;;;4173994;28;20067;-58
2022/11/23 08:47:45;;;;;;;0.00;0.00;;;16.40;77.30;;;;;;4176872;28;19932;-59
2022/11/23 08:50:29;;;;;;;0.00;0.00;;;16.30;77.40;;;;;;4174762;28;20106;-57
2022/11/23 08:53:10;;;;;;;0.00;0.00;;;16.30;77.70;;;;;;4180391;28;20052;-58
2022/11/23 08:55:53;;;;;;;0.00;0.00;;;16.20;77.90;;;;;;4175679;28;20060;-58
2022/11/23 08:58:44;;;;;;;0.00;0.00;;;16.20;78.20;;;;;;4183306;28;20129;-59
2022/11/23 09:01:25;;;;;;;0.00;0.00;;;16.10;78.40;;;;;;4174703;28;20139;-58
2022/11/23 09:04:14;;;;;;;0.00;0.00;;;16.10;78.60;;;;;;4168334;28;20121;-58
2022/11/23 09:07:05;;;;;;;0.03;0.03;;;16.00;78.90;;;;;;4172959;28;20052;-58
2022/11/23 09:09:47;;;;;;;0.00;0.00;;;15.90;79.20;;;;;;4170565;28;20215;-59
2022/11/23 09:12:38;;;;;;;1.17;1.05;;;15.90;79.40;;;;;;4183377;28;20055;-58
2022/11/23 09:15:20;;;;;;;0.32;0.32;;;15.80;79.60;;;;;;4179091;28;20051;-59
2022/11/23 09:18:01;;;;;;;1.75;1.50;;;15.80;79.90;;;;;;4180835;28;20060;-61
2022/11/23 09:21:04;;;;;;;0.00;0.00;;;15.80;80.00;;;;;;4174059;28;20506;-59
2022/11/23 09:23:48;;;;;;;0.00;0.00;;;15.70;80.20;;;;;;4180633;28;20981;-59
2022/11/23 09:26:32;;;;;;;0.00;0.00;;;15.70;80.50;;;;;;4176606;28;20055;-57
2022/11/23 09:29:25;;;;;;;0.00;0.00;;;15.70;80.60;;;;;;4178260;28;20093;-58
2022/11/23 09:32:12;;;;;;;0.00;0.00;;;15.60;80.70;;;;;;4177394;28;20055;-56
2022/11/23 09:34:53;;;;;;;0.00;0.00;;;15.60;80.90;;;;;;4174347;28;20190;-59
2022/11/23 09:37:39;;;;;;;0.00;0.00;;;15.60;81.00;;;;;;4164328;28;20071;-58
2022/11/23 09:40:22;;;;;;;0.00;0.00;;;15.50;81.20;;;;;;4158849;28;20204;-57
2022/11/23 09:43:15;;;;;;;0.00;0.00;;;15.50;81.30;;;;;;4174031;28;20052;-57
2022/11/23 09:46:02;;;;;;;0.00;0.00;;;15.40;81.30;;;;;;4175027;28;20511;-56
2022/11/23 09:49:13;;;;;;;0.00;0.00;;;15.50;81.50;;;;;;4174107;28;20577;-58
2022/11/23 09:51:56;;;;;;;0.00;0.00;;;15.40;81.50;;;;;;4175146;28;20071;-57
2022/11/23 09:54:40;;;;;;;0.00;0.00;;;15.40;81.60;;;;;;4152976;28;20056;-58
2022/11/23 09:57:27;;;;;;;0.00;0.00;;;15.40;81.60;;;;;;4183410;28;20205;-57
2022/11/23 10:00:23;;;;;;;0.00;0.00;;;15.40;81.60;;;;;;4172200;28;20056;-56
2022/11/23 10:03:05;;;;;;;0.00;0.00;;;15.40;81.60;;;;;;4174201;28;20574;-59
2022/11/23 10:05:57;;;;;;;0.00;0.00;;;15.30;81.50;;;;;;4169102;28;20458;-59
2022/11/23 10:08:46;;;;;;;0.00;0.00;;;15.30;81.60;;;;;;4170969;28;20183;-59
2022/11/23 10:11:58;;;;;;;0.00;0.00;;;15.30;81.70;;;;;;4170385;28;20067;-59
2022/11/23 10:15:01;;;;;;;0.00;0.00;;;15.30;82.50;;;;;;4171386;28;20148;-58
2022/11/23 10:17:58;;;;;;;0.00;0.00;;;15.30;81.60;;;;;;4169404;28;20075;-59
2022/11/23 10:20:55;;;;;;;0.00;0.00;;;15.20;81.50;;;;;;4172042;28;20194;-58
2022/11/23 10:23:49;;;;;;;0.05;0.05;;;15.20;81.60;;;;;;4174301;28;20511;-59
2022/11/23 10:26:34;;;;;;;0.00;0.00;;;15.20;81.80;;;;;;4160142;28;20052;-59
2022/11/23 10:29:22;;;;;;;0.28;0.28;;;15.20;81.80;;;;;;4176230;28;20126;-59
2022/11/23 10:32:06;;;;;;;0.00;0.00;;;15.20;81.70;;;;;;4175944;28;20086;-59
2022/11/23 10:34:56;;;;;;;0.00;0.00;;;15.10;81.60;;;;;;4172894;28;20048;-58
2022/11/23 10:37:39;;;;;;;0.70;0.70;;;15.10;81.80;;;;;;4170999;28;20100;-59
2022/11/23 10:40:24;;;;;;;0.10;0.10;;;15.10;81.80;;;;;;4172481;28;20133;-58
2022/11/23 10:43:14;;;;;;;0.10;0.10;;;15.10;81.80;;;;;;4174281;28;20051;-59
2022/11/23 10:46:29;;;;;;;0.28;0.28;;;15.10;82.00;;;;;;4168314;28;20226;-58
2022/11/23 10:49:17;;;;;;;0.00;0.00;;;15.10;81.80;;;;;;4172297;28;20055;-58
2022/11/23 10:52:02;;;;;;;0.00;0.00;;;15.20;81.60;;;;;;4175760;28;20076;-59
2022/11/23 10:54:52;;;;;;;0.38;0.38;;;15.30;81.10;;;;;;4174662;28;20067;-59
2022/11/23 10:57:51;;;;;;;0.00;0.00;;;15.30;80.70;;;;;;4172246;28;20075;-59
2022/11/23 11:00:37;;;;;;;0.35;0.35;;;15.40;80.50;;;;;;4175029;28;20126;-59
2022/11/23 11:03:23;;;;;;;0.00;0.00;;;15.40;80.50;;;;;;4173821;28;20526;-59
2022/11/23 11:06:05;;;;;;;0.00;0.00;;;15.50;80.10;;;;;;4173519;28;20507;-59
2022/11/23 11:08:51;;;;;;;0.00;0.00;;;15.60;79.80;;;;;;4175122;28;20051;-59
2022/11/23 11:11:34;;;;;;;0.00;0.00;;;15.60;79.40;;;;;;4174913;28;20059;-59
2022/11/23 11:14:18;;;;;;;0.00;0.00;;;15.60;79.00;;;;;;4174455;28;20435;-59
2022/11/23 11:16:59;;;;;;;0.00;0.00;;;15.70;78.80;;;;;;4174636;28;20183;-60
2022/11/23 11:19:40;;;;;;;0.00;0.00;;;15.70;78.80;;;;;;4173517;28;20523;-59
2022/11/23 11:22:34;;;;;;;0.00;0.00;;;15.70;78.80;;;;;;4175142;28;20059;-59
2022/11/23 11:25:29;;;;;;;0.00;0.00;;;15.70;78.60;;;;;;4172877;28;20404;-61
2022/11/23 11:28:21;;;;;;;0.00;0.00;;;15.70;78.30;;;;;;4173753;28;20141;-63
2022/11/23 11:31:18;;;;;;;0.00;0.00;;;15.80;78.00;;;;;;4183300;28;20061;-57
2022/11/23 11:34:11;;;;;;;0.00;0.00;;;15.90;77.90;;;;;;4156002;28;20060;-59
2022/11/23 11:37:02;;;;;;;0.00;0.00;;;15.90;77.80;;;;;;4156453;28;20056;-59
2022/11/23 11:39:49;;;;;;;0.52;0.52;;;15.90;77.90;;;;;;4170342;28;20408;-58
2022/11/23 11:42:35;;;;;;;0.95;0.90;;;15.90;78.30;;;;;;4161406;28;20056;-59
2022/11/23 11:45:25;;;;;;;0.22;0.22;;;15.90;78.40;;;;;;4168922;28;20048;-59
2022/11/23 11:48:13;;;;;;;0.30;0.30;;;15.90;78.50;;;;;;4173293;28;20055;-59
2022/11/23 11:51:01;;;;;;;0.05;0.05;;;15.90;78.80;;;;;;4173969;28;20519;-59
2022/11/23 11:53:52;;;;;;;0.10;0.10;;;15.80;79.00;;;;;;4164898;28;20123;-59
2022/11/23 11:56:39;;;;;;;0.00;0.00;;;15.80;79.30;;;;;;4179795;28;20077;-59
2022/11/23 11:59:27;;;;;;;0.00;0.00;;;15.80;79.50;;;;;;4173470;28;20059;-59
2022/11/23 12:02:19;;;;;;;0.15;0.15;;;15.80;79.60;;;;;;4174067;28;20048;-59
2022/11/23 12:05:10;;;;;;;0.00;0.00;;;15.70;79.60;;;;;;4172828;28;20150;-59
2022/11/23 12:08:01;;;;;;;0.25;0.25;;;15.70;80.30;;;;;;4173615;28;20804;-58
2022/11/23 12:10:48;;;;;;;0.28;0.28;;;15.70;81.20;;;;;;4169277;28;20145;-59
2022/11/23 12:13:33;;;;;;;0.15;0.15;;;15.70;82.10;;;;;;4173116;28;20412;-59
2022/11/23 12:16:23;;;;;;;1.77;1.60;;;15.70;82.50;;;;;;4173051;28;20056;-59
2022/11/23 12:19:12;;;;;;;0.22;0.22;;;15.70;82.40;;;;;;4157009;28;20060;-59
2022/11/23 12:22:06;;;;;;;0.40;0.40;;;15.70;82.30;;;;;;4157624;28;20055;-60
2022/11/23 12:25:00;;;;;;;0.10;0.10;;;15.60;82.10;;;;;;4155584;28;20051;-60
2022/11/23 12:27:54;;;;;;;0.00;0.00;;;15.60;82.10;;;;;;4156762;28;20180;-59
2022/11/23 12:30:58;;;;;;;0.85;0.85;;;15.60;82.10;;;;;;4156236;28;20071;-60
2022/11/23 12:34:07;;;;;;;1.95;0.65;;;15.60;82.00;;;;;;4157099;28;20060;-59
2022/11/23 12:37:10;;;;;;;0.00;0.00;;;15.60;82.00;;;;;;4156788;28;20060;-60
2022/11/23 12:40:20;;;;;;;6.93;1.17;;;15.50;82.10;;;;;;4155625;28;20059;-60
2022/11/23 12:43:06;;;;;;;0.30;0.30;;;15.50;82.20;;;;;;4172819;28;20063;-60
2022/11/23 12:46:03;;;;;;;0.00;0.00;;;15.50;82.50;;;;;;4172290;28;20182;-60
2022/11/23 12:49:01;;;;;;;0.00;0.00;;;15.50;82.50;;;;;;4172630;28;20109;-60
2022/11/23 12:51:53;;;;;;;0.00;0.00;;;15.50;82.80;;;;;;4172470;28;20472;-58
2022/11/23 12:54:57;;;;;;;0.00;0.00;;;15.50;82.90;;;;;;4171561;28;20100;-60
2022/11/23 12:57:42;;;;;;;0.38;0.38;;;15.40;83.60;;;;;;4172320;28;20063;-60
2022/11/23 13:00:27;;;;;;;1.98;1.88;;;15.40;84.00;;;;;;4173409;28;20852;-60
2022/11/23 13:03:43;;;;;;;0.00;0.00;;;15.50;84.30;;;;;;4171449;28;20138;-60
2022/11/23 13:06:50;;;;;;;0.22;0.22;;;15.40;84.50;;;;;;4172271;28;20060;-60
2022/11/23 13:10:15;;;;;;;0.00;0.00;;;15.40;84.60;;;;;;4172021;28;20502;-60
2022/11/23 13:13:15;;;;;;;0.00;0.00;;;15.40;84.60;;;;;;4169860;28;20101;-60
2022/11/23 13:16:25;;;;;;;0.17;0.17;;;15.40;84.60;;;;;;4171797;28;20051;-60
2022/11/23 13:19:30;;;;;;;0.73;0.73;;;15.40;84.50;;;;;;4172863;28;20178;-60
2022/11/23 13:22:16;;;;;;;0.00;0.00;;;15.40;84.50;;;;;;4172973;28;20379;-60
2022/11/23 13:25:14;;;;;;;0.05;0.05;;;15.40;84.60;;;;;;4170758;28;20499;-60
2022/11/23 13:27:58;;;;;;;0.00;0.00;;;15.40;84.60;;;;;;4155220;28;20055;-61
2022/11/23 13:30:40;;;;;;;0.00;0.00;;;15.40;84.60;;;;;;4157504;28;20475;-60
2022/11/23 13:33:47;;;;;;;0.00;0.00;;;15.40;84.50;;;;;;4172197;28;20060;-60
2022/11/23 13:36:42;;;;;;;1.23;1.23;;;15.40;84.30;;;;;;4169766;28;20182;-60
2022/11/23 13:40:02;;;;;;;0.00;0.00;;;15.40;84.30;;;;;;4172213;28;20101;-60
2022/11/23 13:42:47;;;;;;;2.50;2.17;;;15.40;84.30;;;;;;4172594;28;20925;-60
2022/11/23 13:45:32;;;;;;;0.00;0.00;;;15.40;84.10;;;;;;4171293;28;20063;-60
2022/11/23 13:48:19;;;;;;;0.00;0.00;;;15.40;84.00;;;;;;4172497;28;20067;-60
2022/11/23 13:51:26;;;;;;;0.52;0.52;;;15.30;83.90;;;;;;4171827;28;20060;-60
2022/11/23 13:54:21;;;;;;;0.00;0.00;;;15.30;83.90;;;;;;4170836;28;20071;-60
2022/11/23 13:57:05;;;;;;;0.00;0.00;;;15.30;83.70;;;;;;4157072;28;20048;-60
2022/11/23 13:59:47;;;;;;;0.00;0.00;;;15.30;83.60;;;;;;4163099;28;20094;-61
2022/11/23 14:02:30;;;;;;;0.00;0.00;;;15.30;83.60;;;;;;4175628;28;20056;-61
2022/11/23 14:05:53;;;;;;;0.10;0.10;;;15.30;83.80;;;;;;4181517;28;20226;-61
2022/11/23 14:08:36;;;;;;;0.00;0.00;;;15.30;83.90;;;;;;4156299;28;20101;-59
2022/11/23 14:11:22;;;;;;;0.65;0.65;;;15.30;83.80;;;;;;4173680;28;20130;-60
2022/11/23 14:14:09;;;;;;;0.25;0.25;;;15.30;84.00;;;;;;4175580;28;20060;-59
2022/11/23 14:17:19;;;;;;;0.00;0.00;;;15.30;84.00;;;;;;4185583;28;20064;-59
2022/11/23 14:20:17;;;;;;;0.00;0.00;;;15.30;84.10;;;;;;4174901;28;20080;-60
2022/11/23 14:23:25;;;;;;;0.40;0.40;;;15.30;84.10;;;;;;4174724;28;20060;-59
2022/11/23 14:26:21;;;;;;;0.00;0.00;;;15.30;84.10;;;;;;4173941;28;20159;-60
2022/11/23 14:29:20;;;;;;;0.00;0.00;;;15.30;84.20;;;;;;4174616;28;20499;-59
2022/11/23 14:32:34;;;;;;;0.00;0.00;;;15.30;84.20;;;;;;4184722;28;20052;-59
2022/11/23 14:35:26;;;;;;;0.00;0.00;;;15.30;84.20;;;;;;4175376;28;20484;-60
2022/11/23 14:38:42;;;;;;;0.00;0.00;;;15.30;84.20;;;;;;4173588;28;20060;-56
2022/11/23 14:41:28;;;;;;;0.00;0.00;;;15.30;84.30;;;;;;4173403;28;20059;-59
2022/11/23 14:44:27;;;;;;;0.38;0.38;;;15.30;84.80;;;;;;4174467;28;20589;-62
2022/11/23 14:47:12;;;;;;;0.00;0.00;;;15.30;85.00;;;;;;4174052;28;20051;-60
2022/11/23 14:49:55;;;;;;;0.20;0.20;;;15.30;85.10;;;;;;4174067;28;20194;-60
2022/11/23 14:52:37;;;;;;;2.45;1.55;;;15.30;85.20;;;;;;4173988;28;20412;-60